Terminal Aerodrome Forecast
Issued by NWS

Home | Current Version | Previous Version | Text Only | Print | Product List | Glossary On
Versions: 1 2 3 4 5 6 7 8 9 10 11 12 13 14 15 16 17 18 19 20 21 22 23 24 25 26
000
FTUS43 KDLH 261549 AAB
TAFHIB
TAF AMD
KHIB 261549Z 2616/2712 15005KT P6SM SCT002 OVC010
      TEMPO 2616/2618 OVC004
     FM261800 21010KT P6SM SCT010 SCT025
     FM270800 00000KT 1/2SM FG BKN010=

USA.gov is the U.S. government's official web portal to all federal, state and local government web resources and services.